Racecast

Charles Turner

RPM Legacy (CA) · 11-12 · PAC · Compare head to head

Athlete rating
Races 50
Seasons 4 2011 — 2014
Speed rating — all races

Track & Field

TF speed rating

2014 TF

RPM Legacy (CA) · Grade 11-12

Date Meet Event Result Place Rating Difficulty PR/SR Flags
2014-05-31 Pacific Association Championships (PAC) 100m 14.95 35th · 7th on team -0.024
2014-05-31 Pacific Association Championships (PAC) 200m 30.57 30th · 4th on team -0.024 ★PR SR
2014-05-31 Pacific Association Championships (PAC) 400m 1:11.2 22nd · 2nd on team -0.024
2014-05-18 3M Invitational 400m 1:13.4 16th · 2nd on team -0.028
2014-05-18 3M Invitational 100m 15.13 19th · 4th on team -0.028
2014-04-26 Revolution Express TC 200m 31.77 20th · 5th on team -0.024 SR
2014-04-26 Revolution Express TC 400m 1:10.03 11th · 3rd on team -0.024 SR
2014-04-26 Revolution Express TC 100m 15.19 20th · 5th on team -0.024
2014-04-05 Sacramento Speed Showcase 400m 1:11.48 21st · 2nd on team -0.033 SR
2014-04-05 Sacramento Speed Showcase 200m 32.23 31st · 5th on team -0.033 SR
2014-04-05 Sacramento Speed Showcase 100m 14.94 41st · 6th on team -0.033 SR
2014-03-22 RPM 400m 1:14.24 22nd · 2nd on team -0.012 SR
2014-03-22 RPM 100m 15.34 33rd · 3rd on team -0.012 SR

2013 TF

RPM Legacy (CA) · Grade 9-10

Date Meet Event Result Place Rating Difficulty PR/SR Flags
2013-06-21 Pacific Association Junior Olympics (3-day) 400m 1:11.2 11th · 1st on team -0.035
2013-06-21 Pacific Association Junior Olympics (3-day) 400m 1:11.27 12th · 2nd on team -0.035
2013-06-21 Pacific Association Junior Olympics (3-day) 200m 31.61 19th · 1st on team -0.035
2013-06-08 Pacific Association Youth Championship (PAC) - 2-day meet 100m 15.15 15th · 3rd on team -0.024
2013-06-08 Pacific Association Youth Championship (PAC) - 2-day meet 200m 30.73 13th · 1st on team -0.024 PR SR
2013-06-08 Pacific Association Youth Championship (PAC) - 2-day meet 200m 31.13 15th · 2nd on team -0.024
2013-05-18 3M Track Club 400m 1:10.68 4th · 1st on team -0.028
2013-05-18 3M Track Club 200m 31.22 15th · 1st on team -0.028
2013-05-04 Hercules / Running Rebels (2-day) 200m 32.29 18th · 2nd on team -0.038
2013-05-04 Hercules / Running Rebels (2-day) 100m 14.8 25th · 4th on team -0.038 ★PR SR
2013-04-27 Revolution Express Track Club 400m 1:09.72 5th · 1st on team -0.024 ★PR SR
2013-04-27 Revolution Express Track Club 100m 14.96 11th · 3rd on team -0.024 PR SR
2013-04-20 Shor / Sheppard Classic 200m 30.8 10th · 1st on team -0.023 PR SR
2013-04-06 Sacramento Speed Showcase 400m 1:14.15 7th · 1st on team -0.031 PR SR
2013-04-06 Sacramento Speed Showcase 200m 33.2 9th · 1st on team -0.031 SR
2013-04-06 Sacramento Speed Showcase 100m 15.04 7th · 2nd on team -0.031 PR SR

2012 TF

RPM Legacy (CA) · Grade 9-10

Date Meet Event Result Place Rating Difficulty PR/SR Flags
2012-06-09 Pacific Association Youth Championships 400m 1:14.69 12th · 2nd on team -0.035 PR SR
2012-06-09 Pacific Association Youth Championships 200m 31.5 24th · 5th on team -0.035 PR SR
2012-05-19 3M Track Meet 200m 33.19 25th · 4th on team -0.031
2012-05-19 3M Track Meet 400m 1:15.51 15th · 2nd on team -0.031 PR SR
2012-05-19 3M Track Meet 100m 16.28 40th · 4th on team -0.031
2012-05-05 Hercules Running Rebels / Top Pacers Invitational 200m 33.18 28th · 5th on team -0.038 PR SR
2012-05-05 Hercules Running Rebels / Top Pacers Invitational 400m 1:18.66 24th · 3rd on team -0.038 SR
2012-04-21 Shor / Sheppard Classic 400m 1:19 21st · 3rd on team -0.023 SR
2012-04-21 Shor / Sheppard Classic 100m 16.22 33rd · 5th on team -0.023 PR SR
2012-04-07 Phenom Elite 100m 16.7 31st · 3rd on team -0.022 PR SR
2012-04-07 Phenom Elite 400m 1:19.23 20th · 2nd on team -0.022 SR

2011 TF

RPM Legacy (CA) · Grade 7-8

Date Meet Event Result Place Rating Difficulty PR/SR Flags
2011-07-08 Region 14 USATF Junior Olympic T&F Championships 400m 1:17.9 5th · 1st on team -0.024 PR SR
2011-07-08 Region 14 USATF Junior Olympic T&F Championships 400m 1:18.42 6th · 2nd on team -0.024
2011-07-02 PA USATF Sub-Bantam Championships 100m 17.57 9th · 2nd on team -0.031 PR SR
2011-07-02 PA USATF Sub-Bantam Championships 200m 39.47 14th · 2nd on team -0.031
2011-07-02 PA USATF Sub-Bantam Championships 400m 1:21.16 5th · 1st on team -0.031 PR SR
2011-05-27 L.A.Jets Invitational 100m 17.84 46th · 2nd on team -0.034 PR SR
2011-05-27 L.A.Jets Invitational 400m 1:26.04 27th · 1st on team -0.034 PR SR
2011-05-27 L.A.Jets Invitational 200m 38.04 33rd · 1st on team -0.034
2011-04-15 CA Track Club Invitational Meet 400m 1:31.63 12th · 2nd on team -0.033 PR SR
2011-04-15 CA Track Club Invitational Meet 200m 37.8 19th · 1st on team -0.033 PR SR